Time,TemperatureF,DewpointF,PressureIn,WindDirection,WindDirectionDegrees,WindSpeedMPH,WindSpeedGustMPH,Humidity,HourlyPrecipIn,Conditions,Clouds,dailyrainin,SolarRadiationWatts/m^2,SoftwareType,DateUTC
2013-09-09 00:03:00,59.3,48.0,30.02,NW,319,0.0,5.0,66,0.00,,,0.00,0,weatherlink.com 1.10,2013-09-09 04:03:00,
2013-09-09 00:18:00,59.4,48.0,30.03,NW,310,0.0,6.0,67,0.00,,,0.00,0,weatherlink.com 1.10,2013-09-09 04:18:00,
2013-09-09 00:33:00,59.2,48.0,30.03,North,1,2.0,5.0,67,0.00,,,0.00,0,weatherlink.com 1.10,2013-09-09 04:33:00,
2013-09-09 00:48:00,59.1,49.0,30.03,NNW,346,0.0,2.0,69,0.00,,,0.00,0,weatherlink.com 1.10,2013-09-09 04:48:00,
2013-09-09 01:03:00,59.1,48.0,30.04,North,353,0.0,4.0,68,0.00,,,0.00,0,weatherlink.com 1.10,2013-09-09 05:03:00,
2013-09-09 01:18:00,58.9,48.0,30.04,North,351,0.0,2.0,68,0.00,,,0.00,0,weatherlink.com 1.10,2013-09-09 05:18:00,
2013-09-09 01:33:00,58.6,47.0,30.04,North,358,0.0,2.0,66,0.00,,,0.00,0,weatherlink.com 1.10,2013-09-09 05:33:00,
2013-09-09 01:48:00,58.6,46.0,30.04,NNW,346,0.0,1.0,64,0.00,,,0.00,0,weatherlink.com 1.10,2013-09-09 05:48:00,
2013-09-09 02:03:00,58.4,47.0,30.04,North,356,0.0,1.0,65,0.00,,,0.00,0,weatherlink.com 1.10,2013-09-09 06:03:00,
2013-09-09 02:18:00,57.9,47.0,30.04,North,358,0.0,0.0,66,0.00,,,0.00,0,weatherlink.com 1.10,2013-09-09 06:18:00,
2013-09-09 02:33:00,57.2,46.0,30.05,North,5,0.0,2.0,67,0.00,,,0.00,0,weatherlink.com 1.10,2013-09-09 06:33:00,
2013-09-09 02:48:00,56.7,46.0,30.05,North,5,0.0,1.0,67,0.00,,,0.00,0,weatherlink.com 1.10,2013-09-09 06:48:00,
2013-09-09 03:03:00,56.1,46.0,30.06,North,5,0.0,0.0,68,0.00,,,0.00,0,weatherlink.com 1.10,2013-09-09 07:03:00,
2013-09-09 03:18:00,55.5,45.0,30.06,North,5,0.0,0.0,69,0.00,,,0.00,0,weatherlink.com 1.10,2013-09-09 07:18:00,
2013-09-09 03:33:00,54.8,46.0,30.07,NNW,328,0.0,1.0,71,0.00,,,0.00,0,weatherlink.com 1.10,2013-09-09 07:33:00,
2013-09-09 03:48:00,54.8,45.0,30.07,NNW,328,0.0,1.0,70,0.00,,,0.00,0,weatherlink.com 1.10,2013-09-09 07:48:00,
2013-09-09 04:03:00,54.8,45.0,30.08,NNW,328,0.0,0.0,69,0.00,,,0.00,0,weatherlink.com 1.10,2013-09-09 08:03:00,
2013-09-09 04:18:00,54.4,45.0,30.09,West,262,0.0,0.0,70,0.00,,,0.00,0,weatherlink.com 1.10,2013-09-09 08:18:00,
2013-09-09 04:33:00,53.7,44.0,30.09,West,262,0.0,0.0,71,0.00,,,0.00,0,weatherlink.com 1.10,2013-09-09 08:33:00,
2013-09-09 04:49:00,53.2,44.0,30.10,West,262,0.0,0.0,71,0.00,,,0.00,0,weatherlink.com 1.10,2013-09-09 08:49:00,
2013-09-09 05:04:00,52.4,44.0,30.10,West,262,0.0,0.0,74,0.00,,,0.00,0,weatherlink.com 1.10,2013-09-09 09:04:00,
2013-09-09 05:19:00,51.5,44.0,30.11,West,262,0.0,0.0,76,0.00,,,0.00,0,weatherlink.com 1.10,2013-09-09 09:19:00,
2013-09-09 05:34:00,50.6,44.0,30.12,West,262,0.0,0.0,77,0.00,,,0.00,0,weatherlink.com 1.10,2013-09-09 09:34:00,
2013-09-09 05:49:00,49.8,44.0,30.12,West,262,0.0,0.0,80,0.00,,,0.00,0,weatherlink.com 1.10,2013-09-09 09:49:00,
2013-09-09 06:04:00,49.1,44.0,30.13,West,262,0.0,0.0,82,0.00,,,0.00,0,weatherlink.com 1.10,2013-09-09 10:04:00,
2013-09-09 06:19:00,48.5,44.0,30.14,West,262,0.0,0.0,83,0.00,,,0.00,0,weatherlink.com 1.10,2013-09-09 10:19:00,
2013-09-09 06:34:00,48.1,44.0,30.14,West,262,0.0,0.0,85,0.00,,,0.00,11,weatherlink.com 1.10,2013-09-09 10:34:00,
2013-09-09 06:49:00,47.9,44.0,30.15,West,262,0.0,0.0,87,0.00,,,0.00,16,weatherlink.com 1.10,2013-09-09 10:49:00,
2013-09-09 07:04:00,48.1,45.0,30.15,West,262,0.0,0.0,88,0.00,,,0.00,21,weatherlink.com 1.10,2013-09-09 11:04:00,
2013-09-09 07:19:00,48.6,45.0,30.15,West,262,0.0,0.0,88,0.00,,,0.00,26,weatherlink.com 1.10,2013-09-09 11:19:00,
2013-09-09 07:34:00,49.7,47.0,30.16,West,262,0.0,0.0,89,0.00,,,0.00,111,weatherlink.com 1.10,2013-09-09 11:34:00,
2013-09-09 07:49:00,51.7,49.0,30.17,West,262,0.0,0.0,90,0.00,,,0.00,42,weatherlink.com 1.10,2013-09-09 11:49:00,
2013-09-09 08:04:00,53.8,50.0,30.16,West,262,0.0,0.0,86,0.00,,,0.00,262,weatherlink.com 1.10,2013-09-09 12:04:00,
2013-09-09 08:19:00,57.7,50.0,30.17,West,262,0.0,0.0,75,0.00,,,0.00,287,weatherlink.com 1.10,2013-09-09 12:19:00,
2013-09-09 08:34:00,60.8,48.0,30.17,ESE,109,0.0,1.0,64,0.00,,,0.00,367,weatherlink.com 1.10,2013-09-09 12:34:00,
2013-09-09 08:49:00,62.5,48.0,30.18,ESE,117,0.0,3.0,60,0.00,,,0.00,413,weatherlink.com 1.10,2013-09-09 12:49:00,
2013-09-09 09:04:00,63.7,48.0,30.18,ESE,112,0.0,1.0,57,0.00,,,0.00,461,weatherlink.com 1.10,2013-09-09 13:04:00,
2013-09-09 09:20:00,64.2,47.0,30.19,ESE,112,0.0,0.0,53,0.00,,,0.00,506,weatherlink.com 1.10,2013-09-09 13:20:00,
2013-09-09 09:35:00,64.3,46.0,30.19,NW,315,0.0,2.0,51,0.00,,,0.00,548,weatherlink.com 1.10,2013-09-09 13:35:00,
2013-09-09 09:50:00,64.7,46.0,30.19,NNW,328,0.0,2.0,51,0.00,,,0.00,587,weatherlink.com 1.10,2013-09-09 13:50:00,
2013-09-09 10:05:00,64.3,47.0,30.19,NNW,330,1.0,2.0,53,0.00,,,0.00,633,weatherlink.com 1.10,2013-09-09 14:05:00,
2013-09-09 10:20:00,64.4,46.0,30.19,NW,307,0.0,3.0,51,0.00,,,0.00,687,weatherlink.com 1.10,2013-09-09 14:20:00,
2013-09-09 10:35:00,65.0,47.0,30.19,West,278,0.0,1.0,52,0.00,,,0.00,666,weatherlink.com 1.10,2013-09-09 14:35:00,
2013-09-09 10:50:00,65.4,45.0,30.19,South,186,0.0,3.0,48,0.00,,,0.00,735,weatherlink.com 1.10,2013-09-09 14:50:00,
2013-09-09 11:05:00,66.0,48.0,30.18,WNW,301,0.0,2.0,52,0.00,,,0.00,754,weatherlink.com 1.10,2013-09-09 15:05:00,
2013-09-09 11:20:00,65.6,47.0,30.18,SSE,151,0.0,4.0,51,0.00,,,0.00,784,weatherlink.com 1.10,2013-09-09 15:20:00,
2013-09-09 11:35:00,66.7,48.0,30.18,NW,318,2.0,3.0,51,0.00,,,0.00,812,weatherlink.com 1.10,2013-09-09 15:35:00,
2013-09-09 11:50:00,67.5,48.0,30.17,SSE,168,0.0,3.0,50,0.00,,,0.00,784,weatherlink.com 1.10,2013-09-09 15:50:00,
2013-09-09 12:05:00,68.1,48.0,30.17,South,170,1.0,4.0,48,0.00,,,0.00,789,weatherlink.com 1.10,2013-09-09 16:05:00,
2013-09-09 12:20:00,68.3,49.0,30.17,SSW,192,0.0,7.0,50,0.00,,,0.00,805,weatherlink.com 1.10,2013-09-09 16:20:00,
2013-09-09 12:35:00,67.9,49.0,30.17,SE,132,1.0,7.0,52,0.00,,,0.00,893,weatherlink.com 1.10,2013-09-09 16:35:00,
2013-09-09 12:50:00,67.0,49.0,30.16,SW,223,0.0,6.0,53,0.00,,,0.00,779,weatherlink.com 1.10,2013-09-09 16:50:00,
2013-09-09 13:05:00,67.5,49.0,30.16,SE,126,0.0,4.0,51,0.00,,,0.00,798,weatherlink.com 1.10,2013-09-09 17:05:00,
2013-09-09 13:20:00,67.0,49.0,30.16,ESE,106,2.0,7.0,52,0.00,,,0.00,830,weatherlink.com 1.10,2013-09-09 17:20:00,
2013-09-09 13:35:00,66.7,49.0,30.16,SSW,210,6.0,7.0,53,0.00,,,0.00,635,weatherlink.com 1.10,2013-09-09 17:35:00,
2013-09-09 13:50:00,67.2,50.0,30.15,South,186,1.0,7.0,55,0.00,,,0.00,555,weatherlink.com 1.10,2013-09-09 17:50:00,
2013-09-09 14:05:00,67.3,49.0,30.15,SSE,157,3.0,4.0,53,0.00,,,0.00,496,weatherlink.com 1.10,2013-09-09 18:05:00,
2013-09-09 14:20:00,66.3,50.0,30.15,SE,145,2.0,8.0,57,0.00,,,0.00,717,weatherlink.com 1.10,2013-09-09 18:20:00,
2013-09-09 14:35:00,66.9,51.0,30.15,SW,233,8.0,12.0,56,0.00,,,0.00,809,weatherlink.com 1.10,2013-09-09 18:35:00,
2013-09-09 14:50:00,66.5,51.0,30.14,SSE,162,0.0,8.0,58,0.00,,,0.00,626,weatherlink.com 1.10,2013-09-09 18:50:00,
2013-09-09 15:05:00,65.9,50.0,30.14,SW,216,0.0,10.0,57,0.00,,,0.00,383,weatherlink.com 1.10,2013-09-09 19:05:00,
2013-09-09 15:20:00,65.8,49.0,30.15,SSE,167,0.0,9.0,56,0.00,,,0.00,482,weatherlink.com 1.10,2013-09-09 19:20:00,
2013-09-09 15:35:00,65.4,49.0,30.15,WSW,238,4.0,10.0,55,0.00,,,0.00,420,weatherlink.com 1.10,2013-09-09 19:35:00,
2013-09-09 15:50:00,64.5,50.0,30.15,SSE,160,3.0,11.0,59,0.00,,,0.00,260,weatherlink.com 1.10,2013-09-09 19:50:00,
2013-09-09 16:05:00,63.9,50.0,30.15,SSE,165,2.0,9.0,61,0.00,,,0.00,216,weatherlink.com 1.10,2013-09-09 20:05:00,
2013-09-09 16:20:00,63.4,50.0,30.15,SSE,166,0.0,7.0,63,0.00,,,0.00,190,weatherlink.com 1.10,2013-09-09 20:20:00,
2013-09-09 16:35:00,62.9,50.0,30.16,South,181,0.0,7.0,64,0.00,,,0.00,156,weatherlink.com 1.10,2013-09-09 20:35:00,
2013-09-09 16:50:00,62.7,52.0,30.16,SSE,160,1.0,10.0,67,0.00,,,0.00,155,weatherlink.com 1.10,2013-09-09 20:50:00,
2013-09-09 17:05:00,62.7,52.0,30.16,SSE,167,0.0,5.0,67,0.00,,,0.00,130,weatherlink.com 1.10,2013-09-09 21:05:00,
2013-09-09 17:20:00,62.7,52.0,30.16,SSW,195,6.0,7.0,67,0.00,,,0.00,118,weatherlink.com 1.10,2013-09-09 21:20:00,
2013-09-09 17:35:00,62.4,52.0,30.15,South,169,0.0,6.0,68,0.00,,,0.00,88,weatherlink.com 1.10,2013-09-09 21:35:00,
2013-09-09 17:50:00,62.2,52.0,30.14,SSW,194,0.0,5.0,69,0.00,,,0.00,79,weatherlink.com 1.10,2013-09-09 21:50:00,
2013-09-09 18:05:00,61.9,52.0,30.14,SSE,160,2.0,7.0,70,0.00,,,0.00,67,weatherlink.com 1.10,2013-09-09 22:05:00,
2013-09-09 18:20:00,61.6,52.0,30.15,South,181,0.0,5.0,71,0.00,,,0.00,44,weatherlink.com 1.10,2013-09-09 22:20:00,
2013-09-09 18:35:00,61.3,53.0,30.14,South,185,0.0,2.0,73,0.00,,,0.00,19,weatherlink.com 1.10,2013-09-09 22:35:00,
2013-09-09 18:50:00,61.0,53.0,30.14,South,170,0.0,3.0,74,0.00,,,0.00,5,weatherlink.com 1.10,2013-09-09 22:50:00,
2013-09-09 19:05:00,60.4,53.0,30.14,SSE,158,0.0,2.0,76,0.00,,,0.00,0,weatherlink.com 1.10,2013-09-09 23:05:00,
2013-09-09 19:20:00,59.8,53.0,30.15,SSE,158,0.0,1.0,78,0.00,,,0.00,0,weatherlink.com 1.10,2013-09-09 23:20:00,
2013-09-09 19:35:00,59.4,53.0,30.14,South,185,0.0,2.0,79,0.00,,,0.00,0,weatherlink.com 1.10,2013-09-09 23:35:00,
2013-09-09 19:50:00,59.0,53.0,30.15,South,178,0.0,3.0,80,0.00,,,0.00,0,weatherlink.com 1.10,2013-09-09 23:50:00,
2013-09-09 20:05:00,58.7,53.0,30.15,SSE,154,0.0,2.0,81,0.00,,,0.00,0,weatherlink.com 1.10,2013-09-10 00:05:00,
2013-09-09 20:20:00,58.7,53.0,30.15,SSE,154,0.0,2.0,82,0.00,,,0.00,0,weatherlink.com 1.10,2013-09-10 00:20:00,
2013-09-09 20:35:00,58.6,53.0,30.15,South,183,0.0,3.0,82,0.00,,,0.00,0,weatherlink.com 1.10,2013-09-10 00:35:00,
2013-09-09 20:50:00,58.6,53.0,30.15,South,183,0.0,1.0,82,0.00,,,0.00,0,weatherlink.com 1.10,2013-09-10 00:50:00,
2013-09-09 21:06:00,58.5,54.0,30.15,SSE,156,0.0,3.0,84,0.00,,,0.00,0,weatherlink.com 1.10,2013-09-10 01:06:00,
2013-09-09 21:21:00,58.4,54.0,30.15,SW,235,0.0,1.0,84,0.00,,,0.00,0,weatherlink.com 1.10,2013-09-10 01:21:00,
2013-09-09 21:36:00,58.3,54.0,30.15,WSW,245,0.0,1.0,85,0.00,,,0.00,0,weatherlink.com 1.10,2013-09-10 01:36:00,
2013-09-09 21:51:00,58.1,54.0,30.15,WSW,245,0.0,0.0,85,0.00,,,0.00,0,weatherlink.com 1.10,2013-09-10 01:51:00,
2013-09-09 22:06:00,57.9,54.0,30.14,SE,128,0.0,1.0,86,0.00,,,0.00,0,weatherlink.com 1.10,2013-09-10 02:06:00,
2013-09-09 22:21:00,58.0,54.0,30.14,SE,129,0.0,0.0,86,0.00,,,0.00,0,weatherlink.com 1.10,2013-09-10 02:21:00,
2013-09-09 22:36:00,58.2,54.0,30.14,South,173,0.0,2.0,86,0.00,,,0.00,0,weatherlink.com 1.10,2013-09-10 02:36:00,
2013-09-09 22:51:00,58.7,55.0,30.14,South,181,0.0,3.0,86,0.00,,,0.00,0,weatherlink.com 1.10,2013-09-10 02:51:00,
2013-09-09 23:06:00,59.5,55.0,30.14,SSE,164,0.0,3.0,84,0.00,,,0.00,0,weatherlink.com 1.10,2013-09-10 03:06:00,
2013-09-09 23:21:00,60.1,55.0,30.14,WNW,299,0.0,5.0,83,0.00,,,0.00,0,weatherlink.com 1.10,2013-09-10 03:21:00,
2013-09-09 23:36:00,60.6,55.0,30.15,WNW,300,2.0,5.0,81,0.00,,,0.00,0,weatherlink.com 1.10,2013-09-10 03:36:00,
2013-09-09 23:51:00,60.9,55.0,30.15,South,175,0.0,4.0,81,0.00,,,0.00,0,weatherlink.com 1.10,2013-09-10 03:51:00,